Flight Track Log - Related Links

Times and Time Zones

All times are in EDT time to prevent confusion due to time zone crossing. See the UPS1306 flight status page for this flight to view local times or setup timezone preferences in your user account.

Time Position Orientation Groundspeed Altitude Reporting Facility
EDT Latitude Longitude Course Direction KTS MPH feet Rate Location/Type
Fri 02:51:21 AM 38.1770 -85.7440 345° North 25 29  Level FlightAware ADS-B
Fri 02:51:50 AM 38.1800 -85.7450 345° North 27 31 468 Level FlightAware ADS-B
Fri 02:52:18 AM 38.1840 -85.7460 349° North 23 26 589 Level FlightAware ADS-B
Fri 02:52:30 AM 38.1850 -85.7460 360° North 17 20 786 Level FlightAware ADS-B
Fri 02:52:58 AM 38.1840 -85.7480 238° Southwest 33 38 917 Level FlightAware ADS-B
Fri 02:53:22 AM 38.1760 -85.7450 164° South 130 150 1,500 Level FlightAware ADS-B
Fri 02:53:42 AM 38.1610 -85.7410 168° South 163 188 1,100 2,750 Climbing FlightAware ADS-B
Fri 02:54:10 AM 38.1380 -85.7420 182° South 185 213 2,200 1,821 Climbing FlightAware ADS-B
Fri 02:54:38 AM 38.1110 -85.7460 187° South 229 264 2,800 2,250 Climbing FlightAware ADS-B
Fri 02:55:06 AM 38.0810 -85.7500 186° South 241 277 4,300 2,786 Climbing FlightAware ADS-B
Fri 02:55:34 AM 38.0500 -85.7620 197° South 265 305 5,400 2,885 Climbing FlightAware ADS-B
Fri 02:55:58 AM 38.0220 -85.7800 207° Southwest 273 314 6,800 3,450 Climbing FlightAware ADS-B
Fri 02:56:14 AM 38.0040 -85.7920 208° Southwest 273 314 7,700 3,136 Climbing FlightAware ADS-B
Fri 02:56:42 AM 37.9730 -85.8120 207° Southwest 280 322 9,100 2,735 Climbing FlightAware ADS-B
Fri 02:57:22 AM 37.9230 -85.8400 204° Southwest 306 352 10,800 2,447 Climbing FlightAware ADS-B
Fri 02:57:58 AM 37.8680 -85.8300 172° South 356 410 12,200 3,150 Climbing FlightAware ADS-B
Fri 02:58:42 AM 37.7970 -85.8050 164° South 370 426 15,000 3,714 Climbing FlightAware ADS-B
Fri 02:59:22 AM 37.7300 -85.7820 165° South 382 440 17,400 3,488 Climbing FlightAware ADS-B
Fri 03:00:08 AM 37.6490 -85.7540 165° South 395 455 20,000 3,070 Climbing FlightAware ADS-B
Fri 03:00:48 AM 37.5770 -85.7290 165° South 411 473 21,800 2,634 Climbing FlightAware ADS-B
Fri 03:01:30 AM 37.5000 -85.7020 164° South 423 487 23,600 2,561 Climbing FlightAware ADS-B
Fri 03:02:10 AM 37.4220 -85.6750 165° South 434 499 25,300 2,416 Climbing FlightAware ADS-B
Fri 03:02:47 AM 37.3482 -85.6495 165° South 446 513 26,700 2,118 Climbing FlightAware ADS-B
Fri 03:03:18 AM 37.2871 -85.6283 165° South 456 525 27,700 1,672 Climbing FlightAware ADS-B
Fri 03:03:48 AM 37.2246 -85.6068 165° South 474 545 28,400 1,600 Climbing FlightAware ADS-B
Fri 03:04:18 AM 37.1600 -85.5846 165° South 484 557 29,300 2,190 Climbing FlightAware ADS-B
Fri 03:04:51 AM 37.0879 -85.5599 165° South 482 555 30,700 2,625 Climbing FlightAware ADS-B
Fri 03:05:22 AM 37.0229 -85.5376 165° South 475 547 32,100 2,548 Climbing FlightAware ADS-B
Fri 03:06:04 AM 36.9343 -85.5073 165° South 471 542 33,800 2,240 Climbing FlightAware ADS-B
Fri 03:06:37 AM 36.8658 -85.4839 165° South 468 539 34,900 2,000 Climbing FlightAware ADS-B
Fri 03:07:07 AM 36.8024 -85.4623 165° South 467 537 35,900 1,700 Climbing FlightAware ADS-B
Fri 03:07:37 AM 36.7392 -85.4407 165° South 466 536 36,600 1,108 Climbing FlightAware ADS-B
Fri 03:08:12 AM 36.6662 -85.4160 165° South 477 549 37,100 353 Climbing FlightAware ADS-B
Fri 03:08:45 AM 36.5964 -85.3922 165° South 480 552 37,000 -76 Descending FlightAware ADS-B
Fri 03:09:31 AM 36.4974 -85.3587 165° South 484 557 37,000  Level FlightAware ADS-B
Fri 03:10:01 AM 36.4322 -85.3368 165° South 487 560 37,000  Level FlightAware ADS-B
Fri 03:10:32 AM 36.3643 -85.3140 165° South 487 560 37,000  Level FlightAware ADS-B
Fri 03:11:02 AM 36.2986 -85.2919 165° South 487 560 37,000  Level FlightAware ADS-B
Fri 03:11:32 AM 36.2328 -85.2698 165° South 487 560 37,000  Level FlightAware ADS-B
Fri 03:12:03 AM 36.1669 -85.2477 165° South 484 557 37,000  Level FlightAware ADS-B
Fri 03:12:33 AM 36.1022 -85.2260 165° South 482 555 37,000  Level FlightAware ADS-B
Fri 03:13:05 AM 36.0333 -85.2031 165° South 477 549 37,000  Level FlightAware ADS-B
Fri 03:13:35 AM 35.9686 -85.1815 165° South 474 545 37,000  Level FlightAware ADS-B
Fri 03:14:06 AM 35.9040 -85.1600 165° South 473 544 37,000  Level FlightAware ADS-B
Fri 03:14:36 AM 35.8395 -85.1385 165° South 469 540 37,000  Level FlightAware ADS-B
Fri 03:15:12 AM 35.7649 -85.1139 165° South 469 540 37,000  Level FlightAware ADS-B
Fri 03:15:42 AM 35.7026 -85.0932 165° South 466 536 37,000  Level FlightAware ADS-B
Fri 03:16:12 AM 35.6398 -85.0725 165° South 465 535 37,000  Level FlightAware ADS-B
Fri 03:16:43 AM 35.5770 -85.0517 165° South 465 535 37,000  Level FlightAware ADS-B
Fri 03:17:14 AM 35.5122 -85.0304 165° South 466 536 37,000  Level FlightAware ADS-B
Fri 03:17:44 AM 35.4494 -85.0098 165° South 466 536 37,000  Level FlightAware ADS-B
Fri 03:18:14 AM 35.3858 -84.9889 165° South 467 537 37,000  Level FlightAware ADS-B
Fri 03:18:44 AM 35.3231 -84.9684 165° South 468 539 37,000  Level FlightAware ADS-B
Fri 03:19:15 AM 35.2598 -84.9477 165° South 469 540 37,000 -787 Level FlightAware ADS-B
Fri 03:19:45 AM 35.1963 -84.9271 165° South 469 540 36,200 -2,557 Descending FlightAware ADS-B
Fri 03:20:16 AM 35.1312 -84.9058 165° South 477 549 34,400 -3,506 Descending FlightAware ADS-B
Fri 03:21:14 AM 35.0060 -84.8650 165° South 484 557 31,000 -3,646 Descending FlightAware ADS-B
Fri 03:21:35 AM 34.9600 -84.8500 165° South 486 559 29,600 -3,231 Descending FlightAware ADS-B
Fri 03:22:06 AM 34.8931 -84.8282 165° South 479 551 28,200 -2,656 Descending FlightAware ADS-B
Fri 03:22:36 AM 34.8277 -84.8072 165° South 470 541 26,900 -3,344 Descending FlightAware ADS-B
Fri 03:23:07 AM 34.7632 -84.7861 165° South 478 550 24,800 -3,148 Descending FlightAware ADS-B
Fri 03:23:37 AM 34.6992 -84.7659 165° South 472 543 23,700 -2,200 Descending FlightAware ADS-B
Fri 03:24:07 AM 34.6365 -84.7454 165° South 463 533 22,600 -2,262 Descending FlightAware ADS-B
Fri 03:24:38 AM 34.5732 -84.7251 165° South 452 520 21,400 -2,710 Descending FlightAware ADS-B
Fri 03:25:09 AM 34.5105 -84.7049 165° South 447 514 19,800 -2,903 Descending FlightAware ADS-B
Fri 03:25:40 AM 34.4496 -84.6854 165° South 438 504 18,400 -2,625 Descending FlightAware ADS-B
Fri 03:26:13 AM 34.3910 -84.6670 165° South 427 491 17,000 -2,897 Descending FlightAware ADS-B
Fri 03:26:38 AM 34.3396 -84.6505 165° South 425 489 15,600 -2,919 Descending FlightAware ADS-B
Fri 03:26:50 AM 34.3163 -84.6434 166° South 422 486 15,200 -1,440 Descending FlightAware ADS-B
Fri 03:27:03 AM 34.2913 -84.6399 173° South 423 487 15,000 -1,959 Descending FlightAware ADS-B
Fri 03:27:39 AM 34.2224 -84.6435 182° South 411 473 13,600 -2,229 Descending FlightAware ADS-B
Fri 03:28:13 AM 34.1580 -84.6470 183° South 395 455 12,400 -1,135 Descending FlightAware ADS-B
Fri 03:28:53 AM 34.0930 -84.6510 183° South 322 371 12,200 -1,071 Descending FlightAware ADS-B
Fri 03:29:37 AM 34.0320 -84.6540 182° South 288 331 10,900 -2,167 Descending FlightAware ADS-B
Fri 03:30:05 AM 33.9950 -84.6550 181° South 286 329 9,600 -2,586 Descending FlightAware ADS-B
Fri 03:30:35 AM 33.9550 -84.6560 181° South 281 323 8,400 -2,379 Descending FlightAware ADS-B
Fri 03:31:03 AM 33.9190 -84.6570 181° South 277 319 7,300 -2,571 Descending FlightAware ADS-B
Fri 03:31:31 AM 33.8840 -84.6580 181° South 274 315 6,000 -2,571 Descending FlightAware ADS-B
Fri 03:31:59 AM 33.8480 -84.6590 181° South 270 311 4,900 -2,143 Descending FlightAware ADS-B
Fri 03:32:27 AM 33.8130 -84.6600 181° South 260 299 4,000 -1,179 Descending FlightAware ADS-B
Fri 03:32:55 AM 33.7830 -84.6610 182° South 245 282 3,800 -231 Descending FlightAware ADS-B
Fri 03:33:19 AM 33.7540 -84.6610 180° South 247 284 3,800  Level FlightAware ADS-B
Fri 03:33:35 AM 33.7350 -84.6620 183° South 246 283 3,800  Level FlightAware ADS-B
Fri 03:34:03 AM 33.7040 -84.6630 182° South 243 280 3,800 -333 Level FlightAware ADS-B
Fri 03:34:47 AM 33.6620 -84.6500 166° South 216 249 3,400 -643 Descending FlightAware ADS-B
Fri 03:34:59 AM 33.6570 -84.6370 115° Southeast 209 241 3,200 -857 Descending FlightAware ADS-B
Fri 03:35:15 AM 33.6510 -84.6210 114° Southeast 202 232 3,000 -571 Descending FlightAware ADS-B
Fri 03:35:41 AM 33.6460 -84.5920 102° East 201 231 2,800 -321 Descending FlightAware ADS-B
Fri 03:36:11 AM 33.6470 -84.5600 88° East 181 208 2,700 -367 Descending FlightAware ADS-B
Fri 03:36:30 AM 33.6470 -84.5420 90° East 164 189 2,500 -808 Descending FlightAware ADS-B
Fri 03:37:03 AM 33.6470 -84.5150 90° East 146 168 2,000 -789 Descending FlightAware ADS-B
Fri 03:37:46 AM 33.6470 -84.4800 90° East 146 168 1,500 -698 Descending FlightAware ADS-B
Fri 03:38:29 AM 33.6470 -84.4440 90° East 145 167 1,000 -720 Descending FlightAware ADS-B
Fri 03:38:36 AM 33.6470 -84.4390 90° East 143 165 900 -857 Descending FlightAware ADS-B
Fri 03:39:22 AM 33.6470 -84.4180 90° East 39 45 -1,174 Descending FlightAware ADS-B
Fri 03:39:46 AM 33.6480 -84.4160 59° Northeast 16 18  Level FlightAware ADS-B
Fri 03:40:27 AM 33.6490 -84.4180 301° West 12 14  Level FlightAware ADS-B
Fri 03:40:57 AM 33.6510 -84.4180 360° North 32 37  Level FlightAware ADS-B
Fri 03:41:11 AM 33.6510 -84.4190 270° West 30 35  Level FlightAware ADS-B
Fri 03:42:11 AM 33.6540 -84.4190 360° North 10 12  Level FlightAware ADS-B
Fri 03:45:00 AM 33.6333 -84.4167 126° Southeast  Level FlightAware Approximate
Fri 03:46:00 AM 33.6367 -84.4279 126° Southeast  Level Estimated

Login

Don't have an account? Register now (free) for customized features, flight alerts, and more!